createdAt,value
2022-08-08T00:08:29.145Z,43.96
2022-08-08T00:19:08.894Z,43.09
2022-08-08T00:29:45.593Z,42.74
2022-08-08T00:41:10.146Z,41.97
2022-08-08T00:51:39.030Z,42.21
2022-08-08T01:03:58.445Z,42.66
2022-08-08T01:13:09.729Z,43.33
2022-08-08T01:24:05.770Z,44.56
2022-08-08T01:34:36.748Z,44.62
2022-08-08T01:45:02.961Z,45.22
2022-08-08T01:56:27.070Z,45.81
2022-08-08T02:06:00.658Z,45.66
2022-08-08T02:16:37.753Z,45.11
2022-08-08T02:27:03.554Z,44.98
2022-08-08T02:37:53.200Z,45.79
2022-08-08T02:47:52.152Z,46.09
2022-08-08T02:58:20.343Z,47.61
2022-08-08T03:09:13.123Z,47.68
2022-08-08T03:19:51.404Z,48.73
2022-08-08T03:30:04.986Z,49.39
2022-08-08T03:40:29.974Z,49.49
2022-08-08T03:50:32.752Z,49.79
2022-08-08T04:01:01.740Z,50.38
2022-08-08T04:11:11.266Z,51.85
2022-08-08T04:21:22.822Z,52.02
2022-08-08T04:31:30.803Z,51.90
2022-08-08T04:41:48.820Z,51.45
2022-08-08T04:51:57.136Z,51.84
2022-08-08T05:02:00.968Z,50.20
2022-08-08T05:12:03.880Z,49.20
2022-08-08T05:22:12.144Z,48.47
2022-08-08T05:32:19.243Z,47.08
2022-08-08T05:42:49.620Z,46.05
2022-08-08T05:52:51.944Z,45.16
2022-08-08T06:03:24.801Z,44.25
2022-08-08T06:13:35.563Z,43.33
2022-08-08T06:23:52.987Z,38.74
2022-08-08T06:34:27.192Z,18.82
2022-08-08T06:44:34.389Z,13.47
2022-08-08T06:54:37.604Z,10.27
2022-08-08T07:04:52.366Z,8.94
2022-08-08T07:15:06.189Z,9.03
2022-08-08T07:25:31.817Z,9.20
2022-08-08T07:35:35.504Z,7.42
2022-08-08T07:46:04.934Z,7.95
2022-08-08T07:56:02.541Z,7.17
2022-08-08T08:06:06.484Z,6.55
2022-08-08T08:16:19.700Z,6.59
2022-08-08T08:26:27.270Z,6.02
2022-08-08T08:36:29.867Z,6.32
2022-08-08T08:46:35.623Z,6.57
2022-08-08T08:56:42.272Z,6.23
2022-08-08T09:06:53.718Z,5.68
2022-08-08T09:17:00.134Z,6.10
2022-08-08T09:27:20.129Z,5.50
2022-08-08T09:37:58.370Z,5.59
2022-08-08T09:48:10.044Z,6.44
2022-08-08T09:58:27.833Z,8.02
2022-08-08T10:08:48.367Z,7.35
2022-08-08T10:19:04.597Z,6.33
2022-08-08T10:29:11.343Z,7.64
2022-08-08T10:39:31.750Z,5.94
2022-08-08T10:50:01.238Z,5.98
2022-08-08T11:00:05.730Z,6.64
2022-08-08T11:10:12.651Z,12.12
2022-08-08T11:20:28.385Z,17.07
2022-08-08T11:30:34.109Z,18.65
2022-08-08T11:40:42.795Z,19.92
2022-08-08T11:50:47.800Z,20.04
2022-08-08T12:00:58.258Z,20.45
2022-08-08T12:11:03.910Z,20.18
2022-08-08T12:21:05.715Z,19.99
2022-08-08T12:31:10.513Z,19.81
2022-08-08T12:41:34.088Z,19.19
2022-08-08T12:51:49.800Z,18.21
2022-08-08T13:02:00.803Z,18.15
2022-08-08T13:12:28.878Z,18.21
2022-08-08T13:22:36.505Z,17.52
2022-08-08T13:32:39.955Z,17.08
2022-08-08T13:42:42.374Z,16.94
2022-08-08T13:52:50.145Z,17.69
2022-08-08T14:02:59.354Z,16.88
2022-08-08T14:13:06.053Z,16.03
2022-08-08T14:23:21.381Z,16.31
2022-08-08T14:33:38.889Z,16.17
2022-08-08T14:44:10.638Z,16.06
2022-08-08T14:54:16.169Z,16.41
2022-08-08T15:04:30.116Z,16.69
2022-08-08T15:14:34.074Z,16.79
2022-08-08T15:24:37.488Z,16.75
2022-08-08T15:34:39.468Z,17.08
2022-08-08T15:44:42.514Z,17.62
2022-08-08T15:54:51.343Z,18.32
2022-08-08T16:04:54.471Z,18.55
2022-08-08T16:15:00.375Z,19.03
2022-08-08T16:25:05.885Z,19.83
2022-08-08T16:35:09.900Z,20.22
2022-08-08T16:46:37.295Z,20.16
2022-08-08T16:55:53.076Z,21.14
2022-08-08T17:05:56.933Z,21.45
2022-08-08T17:15:58.627Z,21.43
2022-08-08T17:26:05.283Z,22.20
2022-08-08T17:36:10.036Z,22.21
2022-08-08T17:46:41.158Z,23.39
2022-08-08T17:56:43.104Z,23.64
2022-08-08T18:06:49.252Z,23.90
2022-08-08T18:16:52.930Z,24.41
2022-08-08T18:26:58.499Z,25.05
2022-08-08T18:37:04.869Z,25.87
2022-08-08T18:47:11.170Z,26.23
2022-08-08T18:57:12.908Z,26.35
2022-08-08T19:07:14.771Z,26.66
2022-08-08T19:17:29.310Z,27.20
2022-08-08T19:27:56.900Z,28.01
2022-08-08T19:38:00.915Z,28.21
2022-08-08T19:48:03.834Z,29.12
2022-08-08T19:58:07.544Z,30.74
2022-08-08T20:08:30.948Z,30.95
2022-08-08T20:18:39.898Z,31.12
2022-08-08T20:28:53.660Z,32.27
2022-08-08T20:38:55.312Z,32.83
2022-08-08T20:48:58.578Z,33.24
2022-08-08T20:59:01.507Z,33.43
2022-08-08T21:09:07.649Z,33.04
2022-08-08T21:19:10.847Z,32.64
2022-08-08T21:29:14.093Z,32.32
2022-08-08T21:39:23.939Z,32.29
2022-08-08T21:49:43.181Z,31.68
2022-08-08T22:00:03.310Z,32.31
2022-08-08T22:10:18.322Z,31.25
2022-08-08T22:20:31.631Z,31.49
2022-08-08T22:30:33.749Z,31.19
2022-08-08T22:40:35.392Z,30.61
2022-08-08T22:50:37.974Z,30.42
2022-08-08T23:00:41.939Z,30.97
2022-08-08T23:11:00.611Z,32.51
2022-08-08T23:21:08.491Z,32.72
2022-08-08T23:31:10.044Z,33.36
2022-08-08T23:41:23.177Z,33.58
2022-08-08T23:51:41.904Z,33.67
